createdAt,value
2017-07-30T00:00:29.462Z,1004.06
2017-07-30T00:01:39.386Z,1004.08
2017-07-30T00:02:49.293Z,1004
2017-07-30T00:03:59.201Z,1004.02
2017-07-30T00:05:09.129Z,1004.01
2017-07-30T00:06:19.375Z,1004.01
2017-07-30T00:07:29.593Z,1003.95
2017-07-30T00:08:39.209Z,1003.96
2017-07-30T00:09:49.000Z,1003.94
2017-07-30T00:10:58.901Z,1003.92
2017-07-30T00:12:08.523Z,1003.91
2017-07-30T00:13:18.744Z,1003.82
2017-07-30T00:14:28.667Z,1003.88
2017-07-30T00:15:38.424Z,1003.87
2017-07-30T00:16:48.644Z,1003.86
2017-07-30T00:17:58.861Z,1003.86
2017-07-30T00:19:08.791Z,1003.77
2017-07-30T00:20:18.714Z,1003.85
2017-07-30T00:21:29.088Z,1003.81
2017-07-30T00:22:39.003Z,1003.83
2017-07-30T00:23:49.218Z,1003.82
2017-07-30T00:24:59.510Z,1003.8
2017-07-30T00:26:09.433Z,1003.78
2017-07-30T00:27:19.388Z,1003.78
2017-07-30T00:28:29.605Z,1003.81
2017-07-30T00:29:39.817Z,1003.73
2017-07-30T00:30:49.428Z,1003.77
2017-07-30T00:31:59.645Z,1003.72
2017-07-30T00:33:09.702Z,1003.68
2017-07-30T00:34:19.317Z,1003.7
2017-07-30T00:35:28.914Z,1003.68
2017-07-30T00:36:38.222Z,1003.69
2017-07-30T00:37:48.138Z,1003.7
2017-07-30T00:38:57.746Z,1003.69
2017-07-30T00:40:07.676Z,1003.67
2017-07-30T00:41:17.886Z,1003.71
2017-07-30T00:42:28.107Z,1003.63
2017-07-30T00:43:38.323Z,1003.66
2017-07-30T00:44:48.540Z,1003.62
2017-07-30T00:45:58.760Z,1003.68
2017-07-30T00:47:08.061Z,1003.68
2017-07-30T00:48:18.271Z,1003.66
2017-07-30T00:49:28.209Z,1003.68
2017-07-30T00:50:38.114Z,1003.69
2017-07-30T00:51:47.716Z,1003.65
2017-07-30T00:52:57.934Z,1003.63
2017-07-30T00:54:07.850Z,1003.62
2017-07-30T00:55:17.764Z,1003.58
2017-07-30T00:56:27.678Z,1003.57
2017-07-30T00:57:37.582Z,1003.57
2017-07-30T00:58:47.505Z,1003.53
2017-07-30T00:59:57.428Z,1003.5
2017-07-30T01:01:06.739Z,1003.47
2017-07-30T01:02:17.309Z,1003.45
2017-07-30T01:03:26.920Z,1003.45
2017-07-30T01:04:36.226Z,1003.46
2017-07-30T01:05:46.147Z,1003.48
2017-07-30T01:06:55.750Z,1003.48
2017-07-30T01:08:05.804Z,1003.46
2017-07-30T01:09:15.114Z,1003.45
2017-07-30T01:10:24.725Z,1003.44
2017-07-30T01:11:34.341Z,1003.47
2017-07-30T01:12:43.947Z,1003.47
2017-07-30T01:13:54.013Z,1003.37
2017-07-30T01:15:04.226Z,1003.39
2017-07-30T01:16:13.538Z,1003.36
2017-07-30T01:17:23.758Z,1003.32
2017-07-30T01:18:33.971Z,1003.33
2017-07-30T01:19:44.037Z,1003.33
2017-07-30T01:20:54.260Z,1003.33
2017-07-30T01:22:04.475Z,1003.31
2017-07-30T01:23:13.787Z,1003.25
2017-07-30T01:24:24.001Z,1003.23
2017-07-30T01:25:33.963Z,1003.23
2017-07-30T01:26:43.566Z,1003.21
2017-07-30T01:27:53.481Z,1003.18
2017-07-30T01:29:03.387Z,1003.11
2017-07-30T01:30:13.003Z,1003.19
2017-07-30T01:31:23.220Z,1003.16
2017-07-30T01:32:33.127Z,1003.12
2017-07-30T01:33:42.742Z,1003.15
2017-07-30T01:34:52.029Z,1003.13
2017-07-30T01:36:01.022Z,1003.16
2017-07-30T01:37:11.246Z,1003.17
2017-07-30T01:38:21.458Z,1003.18
2017-07-30T01:39:31.705Z,1003.15
2017-07-30T01:40:41.314Z,1003.16
2017-07-30T01:41:51.530Z,1003.15
2017-07-30T01:43:01.277Z,1003.13
2017-07-30T01:44:11.192Z,1003.11
2017-07-30T01:45:20.789Z,1003.1
2017-07-30T01:46:30.391Z,1003.09
2017-07-30T01:47:40.601Z,1003.1
2017-07-30T01:48:50.513Z,1003.16
2017-07-30T01:50:00.440Z,1003.2
2017-07-30T01:51:10.350Z,1003.22
2017-07-30T01:52:20.581Z,1003.21
2017-07-30T01:53:30.803Z,1003.17
2017-07-30T01:54:40.880Z,1003.17
2017-07-30T01:55:50.801Z,1003.18
2017-07-30T01:57:00.401Z,1003.19
2017-07-30T01:58:10.643Z,1003.15
2017-07-30T01:59:20.547Z,1003.17
2017-07-30T02:00:30.292Z,1003.16
2017-07-30T02:01:40.506Z,1003.14
2017-07-30T02:02:50.414Z,1003.12
2017-07-30T02:03:59.713Z,1003.08
2017-07-30T02:05:09.319Z,1003.09
2017-07-30T02:06:19.836Z,1003.1
2017-07-30T02:07:29.740Z,1003.11
2017-07-30T02:08:39.653Z,1003.06
2017-07-30T02:09:49.572Z,1003
2017-07-30T02:10:59.472Z,1003.04
2017-07-30T02:12:09.482Z,1003
2017-07-30T02:13:19.711Z,1002.96
2017-07-30T02:14:29.311Z,1002.96
2017-07-30T02:15:39.527Z,1002.98
2017-07-30T02:16:49.127Z,1002.95
2017-07-30T02:17:59.029Z,1002.94
2017-07-30T02:19:08.638Z,1002.93
2017-07-30T02:20:18.861Z,1002.91
2017-07-30T02:21:29.095Z,1002.88
2017-07-30T02:22:39.000Z,1002.92
2017-07-30T02:23:48.667Z,1002.92
2017-07-30T02:24:58.889Z,1002.89
2017-07-30T02:26:09.104Z,1002.85
2017-07-30T02:27:19.333Z,1002.86
2017-07-30T02:28:29.239Z,1002.86
2017-07-30T02:29:38.834Z,1002.87
2017-07-30T02:30:48.433Z,1002.89
2017-07-30T02:31:58.380Z,1002.89
2017-07-30T02:33:08.593Z,1002.95
2017-07-30T02:34:18.508Z,1002.89
2017-07-30T02:35:28.514Z,1002.91
2017-07-30T02:36:38.727Z,1002.88
2017-07-30T02:37:48.337Z,1002.86
2017-07-30T02:38:58.560Z,1002.91
2017-07-30T02:40:08.772Z,1002.96
2017-07-30T02:41:18.837Z,1002.96
2017-07-30T02:42:29.052Z,1002.97
2017-07-30T02:43:39.278Z,1002.96
2017-07-30T02:44:49.517Z,1002.9
2017-07-30T02:45:58.828Z,1002.8
2017-07-30T02:47:08.428Z,1002.81
2017-07-30T02:48:18.363Z,1002.8
2017-07-30T02:49:27.980Z,1002.8
2017-07-30T02:50:37.894Z,1002.76
2017-07-30T02:51:47.508Z,1002.78
2017-07-30T02:52:57.888Z,1002.71
2017-07-30T02:54:07.487Z,1002.74
2017-07-30T02:55:17.404Z,1002.7
2017-07-30T02:56:27.626Z,1002.67
2017-07-30T02:57:37.843Z,1002.66
2017-07-30T02:58:47.909Z,1002.62
2017-07-30T02:59:58.150Z,1002.61
2017-07-30T03:01:07.755Z,1002.62
2017-07-30T03:02:17.967Z,1002.59
2017-07-30T03:03:28.185Z,1002.58
2017-07-30T03:04:38.449Z,1002.61
2017-07-30T03:05:48.052Z,1002.64
2017-07-30T03:06:58.280Z,1002.59
2017-07-30T03:08:08.501Z,1002.55
2017-07-30T03:09:18.725Z,1002.49
2017-07-30T03:10:29.101Z,1002.48
2017-07-30T03:11:39.315Z,1002.46
2017-07-30T03:12:49.225Z,1002.46
2017-07-30T03:13:59.131Z,1002.41
2017-07-30T03:15:08.733Z,1002.45
2017-07-30T03:16:18.690Z,1002.48
2017-07-30T03:17:28.288Z,1002.52
2017-07-30T03:18:37.921Z,1002.57
2017-07-30T03:19:48.132Z,1002.55
2017-07-30T03:20:58.346Z,1002.5
2017-07-30T03:22:08.875Z,1002.51
2017-07-30T03:23:18.799Z,1002.46
2017-07-30T03:24:29.025Z,1002.51
2017-07-30T03:25:39.240Z,1002.49
2017-07-30T03:26:49.136Z,1002.42
2017-07-30T03:27:59.199Z,1002.37
2017-07-30T03:29:09.123Z,1002.4
2017-07-30T03:30:19.041Z,1002.35
2017-07-30T03:31:28.648Z,1002.33
2017-07-30T03:32:38.562Z,1002.32
2017-07-30T03:33:48.470Z,1002.33
2017-07-30T03:34:57.766Z,1002.31
2017-07-30T03:36:07.694Z,1002.33
2017-07-30T03:37:17.593Z,1002.33
2017-07-30T03:38:27.505Z,1002.33
2017-07-30T03:39:37.566Z,1002.3
2017-07-30T03:40:47.794Z,1002.3
2017-07-30T03:41:57.415Z,1002.3
2017-07-30T03:43:07.324Z,1002.31
2017-07-30T03:44:17.265Z,1002.31
2017-07-30T03:45:27.604Z,1002.32
2017-07-30T03:46:37.512Z,1002.29
2017-07-30T03:47:47.426Z,1002.3
2017-07-30T03:48:57.649Z,1002.31
2017-07-30T03:50:07.565Z,1002.3
2017-07-30T03:51:17.495Z,1002.28
2017-07-30T03:52:27.097Z,1002.31
2017-07-30T03:53:37.403Z,1002.32
2017-07-30T03:54:47.609Z,1002.36
2017-07-30T03:55:57.517Z,1002.33
2017-07-30T03:57:07.268Z,1002.33
2017-07-30T03:58:16.574Z,1002.35
2017-07-30T03:59:26.795Z,1002.42
2017-07-30T04:00:36.715Z,1002.39
2017-07-30T04:01:46.628Z,1002.39
2017-07-30T04:02:56.642Z,1002.39
2017-07-30T04:04:06.258Z,1002.36
2017-07-30T04:05:15.861Z,1002.38
2017-07-30T04:06:25.793Z,1002.38
2017-07-30T04:07:35.413Z,1002.4
2017-07-30T04:08:45.323Z,1002.41
2017-07-30T04:09:55.562Z,1002.42
2017-07-30T04:11:05.164Z,1002.42
2017-07-30T04:12:15.077Z,1002.41
2017-07-30T04:13:25.303Z,1002.41
2017-07-30T04:14:35.532Z,1002.43
2017-07-30T04:15:45.752Z,1002.43
2017-07-30T04:16:55.374Z,1002.42
2017-07-30T04:18:04.979Z,1002.4
2017-07-30T04:19:14.591Z,1002.41
2017-07-30T04:20:24.916Z,1002.4
2017-07-30T04:21:35.141Z,1002.39
2017-07-30T04:22:45.387Z,1002.42
2017-07-30T04:23:55.307Z,1002.44
2017-07-30T04:25:04.908Z,1002.45
2017-07-30T04:26:14.925Z,1002.44
2017-07-30T04:27:25.153Z,1002.46
2017-07-30T04:28:35.073Z,1002.48
2017-07-30T04:29:44.093Z,1002.43
2017-07-30T04:30:53.994Z,1002.47
2017-07-30T04:32:04.062Z,1002.44
2017-07-30T04:33:13.992Z,1002.43
2017-07-30T04:34:24.215Z,1002.45
2017-07-30T04:35:33.525Z,1002.46
2017-07-30T04:36:43.746Z,1002.43
2017-07-30T04:37:53.806Z,1002.42
2017-07-30T04:39:03.733Z,1002.45
2017-07-30T04:40:13.335Z,1002.47
2017-07-30T04:41:23.270Z,1002.42
2017-07-30T04:42:33.506Z,1002.4
2017-07-30T04:43:43.584Z,1002.41
2017-07-30T04:44:53.504Z,1002.42
2017-07-30T04:46:03.138Z,1002.43
2017-07-30T04:47:13.046Z,1002.45
2017-07-30T04:48:22.963Z,1002.46
2017-07-30T04:49:32.720Z,1002.48
2017-07-30T04:50:42.630Z,1002.43
2017-07-30T04:51:53.212Z,1002.4
2017-07-30T04:53:03.433Z,1002.4
2017-07-30T04:54:13.350Z,1002.42
2017-07-30T04:55:23.426Z,1002.41
2017-07-30T04:56:33.338Z,1002.38
2017-07-30T04:57:43.264Z,1002.38
2017-07-30T04:58:53.510Z,1002.42
2017-07-30T05:00:03.425Z,1002.44
2017-07-30T05:01:13.352Z,1002.48
2017-07-30T05:02:23.274Z,1002.46
2017-07-30T05:03:33.506Z,1002.46
2017-07-30T05:04:43.120Z,1002.48
2017-07-30T05:05:53.343Z,1002.47
2017-07-30T05:07:03.097Z,1002.42
2017-07-30T05:08:12.712Z,1002.46
2017-07-30T05:09:22.307Z,1002.45
2017-07-30T05:10:32.524Z,1002.44
2017-07-30T05:11:42.127Z,1002.44
2017-07-30T05:12:51.577Z,1002.46
2017-07-30T05:14:00.890Z,1002.45
2017-07-30T05:15:11.100Z,1002.44
2017-07-30T05:16:21.002Z,1002.43
2017-07-30T05:17:30.936Z,1002.46
2017-07-30T05:18:40.917Z,1002.46
2017-07-30T05:19:51.140Z,1002.48
2017-07-30T05:21:01.367Z,1002.44
2017-07-30T05:22:11.288Z,1002.48
2017-07-30T05:23:21.205Z,1002.49
2017-07-30T05:24:31.234Z,1002.52
2017-07-30T05:25:40.845Z,1002.52
2017-07-30T05:26:51.091Z,1002.5
2017-07-30T05:28:01.005Z,1002.52
2017-07-30T05:29:11.238Z,1002.47
2017-07-30T05:30:21.645Z,1002.49
2017-07-30T05:31:31.258Z,1002.47
2017-07-30T05:32:41.173Z,1002.47
2017-07-30T05:33:50.497Z,1002.45
2017-07-30T05:34:59.801Z,1002.49
2017-07-30T05:36:10.072Z,1002.4
2017-07-30T05:37:19.680Z,1002.39
2017-07-30T05:38:29.917Z,1002.39
2017-07-30T05:39:39.849Z,1002.42
2017-07-30T05:40:49.461Z,1002.41
2017-07-30T05:42:00.031Z,1002.43
2017-07-30T05:43:09.341Z,1002.42
2017-07-30T05:44:19.593Z,1002.46
2017-07-30T05:45:29.515Z,1002.5
2017-07-30T05:46:39.446Z,1002.47
2017-07-30T05:47:49.517Z,1002.49
2017-07-30T05:48:59.447Z,1002.5
2017-07-30T05:50:09.082Z,1002.47
2017-07-30T05:51:18.696Z,1002.51
2017-07-30T05:52:28.915Z,1002.49
2017-07-30T05:53:38.827Z,1002.55
2017-07-30T05:54:48.434Z,1002.5
2017-07-30T05:55:58.359Z,1002.51
2017-07-30T05:57:08.298Z,1002.44
2017-07-30T05:58:18.534Z,1002.47
2017-07-30T05:59:28.456Z,1002.48
2017-07-30T06:00:39.280Z,1002.45
2017-07-30T06:01:49.922Z,1002.53
2017-07-30T06:02:59.856Z,1002.53
2017-07-30T06:04:09.473Z,1002.51
2017-07-30T06:05:19.957Z,1002.56
2017-07-30T06:06:30.267Z,1002.55
2017-07-30T06:07:40.487Z,1002.53
2017-07-30T06:08:50.726Z,1002.58
2017-07-30T06:10:00.950Z,1002.54
2017-07-30T06:11:10.417Z,1002.6
2017-07-30T06:12:20.642Z,1002.61
2017-07-30T06:13:30.556Z,1002.6
2017-07-30T06:14:40.485Z,1002.66
2017-07-30T06:15:50.415Z,1002.65
2017-07-30T06:17:00.488Z,1002.65
2017-07-30T06:18:10.433Z,1002.65
2017-07-30T06:19:20.678Z,1002.69
2017-07-30T06:20:30.305Z,1002.73
2017-07-30T06:21:40.553Z,1002.76
2017-07-30T06:22:50.609Z,1002.78
2017-07-30T06:24:00.875Z,1002.81
2017-07-30T06:25:10.839Z,1002.8
2017-07-30T06:26:21.107Z,1002.82
2017-07-30T06:27:31.058Z,1002.82
2017-07-30T06:28:41.048Z,1002.79
2017-07-30T06:29:50.982Z,1002.8
2017-07-30T06:31:00.905Z,1002.85
2017-07-30T06:32:10.822Z,1002.87
2017-07-30T06:33:21.050Z,1002.83
2017-07-30T06:34:30.705Z,1002.84
2017-07-30T06:35:40.620Z,1002.8
2017-07-30T06:36:50.540Z,1002.83
2017-07-30T06:37:59.840Z,1002.88
2017-07-30T06:39:09.454Z,1002.89
2017-07-30T06:40:19.227Z,1002.86
2017-07-30T06:41:28.529Z,1002.87
2017-07-30T06:42:38.131Z,1002.84
2017-07-30T06:43:47.488Z,1002.87
2017-07-30T06:44:57.425Z,1002.8
2017-07-30T06:46:06.562Z,1002.81
2017-07-30T06:47:15.857Z,1002.82
2017-07-30T06:48:25.775Z,1002.85
2017-07-30T06:49:36.206Z,1002.83
2017-07-30T06:50:45.506Z,1002.82
2017-07-30T06:51:55.877Z,1002.82
2017-07-30T06:53:05.532Z,1002.84
2017-07-30T06:54:15.766Z,1002.86
2017-07-30T06:55:25.977Z,1002.82
2017-07-30T06:56:35.889Z,1002.85
2017-07-30T06:57:46.157Z,1002.89
2017-07-30T06:58:55.764Z,1002.92
2017-07-30T07:00:05.082Z,1002.93
2017-07-30T07:01:14.383Z,1002.9
2017-07-30T07:02:24.600Z,1002.94
2017-07-30T07:03:34.630Z,1002.94
2017-07-30T07:04:44.853Z,1002.94
2017-07-30T07:05:54.760Z,1003.09
2017-07-30T07:07:04.692Z,1003.05
2017-07-30T07:08:14.608Z,1003.06
2017-07-30T07:09:25.130Z,1003.03
2017-07-30T07:10:35.347Z,1003.11
2017-07-30T07:11:44.639Z,1003.08
2017-07-30T07:12:54.566Z,1003.03
2017-07-30T07:14:04.486Z,1003.02
2017-07-30T07:15:14.699Z,1003.08
2017-07-30T07:16:24.621Z,1003.03
2017-07-30T07:17:34.541Z,1002.99
2017-07-30T07:18:44.165Z,1003.01
2017-07-30T07:19:54.082Z,1002.98
2017-07-30T07:21:03.994Z,1003.02
2017-07-30T07:22:14.224Z,1003
2017-07-30T07:23:24.143Z,1002.95
2017-07-30T07:24:34.371Z,1003
2017-07-30T07:25:43.990Z,1003.01
2017-07-30T07:26:54.255Z,1002.98
2017-07-30T07:28:03.562Z,1002.97
2017-07-30T07:29:13.169Z,1002.95
2017-07-30T07:30:23.080Z,1002.97
2017-07-30T07:31:33.311Z,1002.93
2017-07-30T07:32:43.576Z,1002.99
2017-07-30T07:33:53.482Z,1002.96
2017-07-30T07:35:03.397Z,1002.97
2017-07-30T07:36:13.634Z,1002.98
2017-07-30T07:37:22.946Z,1003.02
2017-07-30T07:38:33.016Z,1003.06
2017-07-30T07:39:43.240Z,1003.01
2017-07-30T07:40:53.468Z,1003.02
2017-07-30T07:42:03.689Z,1003.08
2017-07-30T07:43:13.904Z,1003.03
2017-07-30T07:44:23.835Z,1003.03
2017-07-30T07:45:34.060Z,1003
2017-07-30T07:46:44.278Z,1003.04
2017-07-30T07:47:53.884Z,1003
2017-07-30T07:49:03.802Z,1003
2017-07-30T07:50:14.049Z,1002.96
2017-07-30T07:51:24.273Z,1002.97
2017-07-30T07:52:33.578Z,1002.94
2017-07-30T07:53:43.194Z,1002.97
2017-07-30T07:54:53.414Z,1002.94
2017-07-30T07:56:02.707Z,1002.94
2017-07-30T07:57:12.311Z,1002.92
2017-07-30T07:58:22.529Z,1002.89
2017-07-30T07:59:32.444Z,1002.85
2017-07-30T08:00:41.738Z,1002.89
2017-07-30T08:01:52.107Z,1002.92
2017-07-30T08:03:02.340Z,1002.94
2017-07-30T08:04:12.273Z,1002.92
2017-07-30T08:05:22.195Z,1002.99
2017-07-30T08:06:32.431Z,1002.97
2017-07-30T08:07:42.150Z,1002.94
2017-07-30T08:08:52.402Z,1003
2017-07-30T08:10:02.016Z,1002.98
2017-07-30T08:11:11.935Z,1002.93
2017-07-30T08:12:21.853Z,1002.97
2017-07-30T08:13:31.566Z,1003.03
2017-07-30T08:14:41.480Z,1003
2017-07-30T08:15:51.720Z,1003.05
2017-07-30T08:17:01.654Z,1003.01
2017-07-30T08:18:11.574Z,1003.09
2017-07-30T08:19:21.804Z,1003.04
2017-07-30T08:20:31.718Z,1002.94
2017-07-30T08:21:41.327Z,1003.01
2017-07-30T08:22:50.934Z,1003.03
2017-07-30T08:24:00.538Z,1003.04
2017-07-30T08:25:10.146Z,1003.02
2017-07-30T08:26:20.064Z,1003.09
2017-07-30T08:27:29.694Z,1003.12
2017-07-30T08:28:39.942Z,1003.15
2017-07-30T08:29:49.870Z,1003.1
2017-07-30T08:30:59.787Z,1003.17
2017-07-30T08:32:09.080Z,1003.11
2017-07-30T08:33:18.675Z,1003.13
2017-07-30T08:34:28.588Z,1003.11
2017-07-30T08:35:38.205Z,1003.24
2017-07-30T08:36:48.437Z,1003.23
2017-07-30T08:37:58.666Z,1003.22
2017-07-30T08:39:08.578Z,1003.24
2017-07-30T08:40:18.714Z,1003.15
2017-07-30T08:41:28.971Z,1003.22
2017-07-30T08:42:39.288Z,1003.2
2017-07-30T08:43:49.205Z,1003.14
2017-07-30T08:44:58.816Z,1003.19
2017-07-30T08:46:08.733Z,1003.3
2017-07-30T08:47:18.661Z,1003.24
2017-07-30T08:48:28.631Z,1003.18
2017-07-30T08:49:39.235Z,1003.14
2017-07-30T08:50:48.877Z,1003.23
2017-07-30T08:51:59.100Z,1003.12
2017-07-30T08:53:09.321Z,1003.2
2017-07-30T08:54:19.618Z,1003.25
2017-07-30T08:55:29.251Z,1003.06
2017-07-30T08:56:39.472Z,1003.13
2017-07-30T08:57:48.775Z,1003.16
2017-07-30T08:58:58.692Z,1003.2
2017-07-30T09:00:08.171Z,1003.14
2017-07-30T09:01:17.787Z,1003.19
2017-07-30T09:02:28.032Z,1003.21
2017-07-30T09:03:37.948Z,1003.19
2017-07-30T09:04:47.584Z,1003.17
2017-07-30T09:05:57.956Z,1003.16
2017-07-30T09:07:07.570Z,1003.28
2017-07-30T09:08:17.181Z,1003.14
2017-07-30T09:09:27.407Z,1003.23
2017-07-30T09:10:36.728Z,1003.19
2017-07-30T09:11:46.432Z,1003.23
2017-07-30T09:12:56.382Z,1003.11
2017-07-30T09:14:05.998Z,1003.15
2017-07-30T09:15:15.601Z,1003.25
2017-07-30T09:16:25.844Z,1003.14
2017-07-30T09:17:36.064Z,1003.23
2017-07-30T09:18:46.290Z,1003.18
2017-07-30T09:19:56.515Z,1003.17
2017-07-30T09:21:06.475Z,1003.12
2017-07-30T09:22:16.077Z,1003.18
2017-07-30T09:23:26.301Z,1003.13
2017-07-30T09:24:36.232Z,1003.09
2017-07-30T09:25:45.837Z,1003.12
2017-07-30T09:26:55.752Z,1003.15
2017-07-30T09:28:05.680Z,1003.11
2017-07-30T09:29:15.747Z,1003.11
2017-07-30T09:30:25.660Z,1003.15
2017-07-30T09:31:35.581Z,1003.2
2017-07-30T09:32:45.493Z,1003.17
2017-07-30T09:33:55.432Z,1003.16
2017-07-30T09:35:05.814Z,1003.17
2017-07-30T09:36:16.047Z,1003.17
2017-07-30T09:37:26.276Z,1003.16
2017-07-30T09:38:36.206Z,1003.22
2017-07-30T09:39:45.827Z,1003.23
2017-07-30T09:40:54.915Z,1003.27
2017-07-30T09:42:04.828Z,1003.2
2017-07-30T09:43:14.438Z,1003.21
2017-07-30T09:44:24.051Z,1003.19
2017-07-30T09:45:33.674Z,1003.3
2017-07-30T09:46:43.893Z,1003.33
2017-07-30T09:47:53.522Z,1003.33
2017-07-30T09:49:03.755Z,1003.31
2017-07-30T09:50:13.666Z,1003.39
2017-07-30T09:51:23.896Z,1003.39
2017-07-30T09:52:33.195Z,1003.38
2017-07-30T09:53:42.812Z,1003.4
2017-07-30T09:54:53.043Z,1003.37
2017-07-30T09:56:03.274Z,1003.46
2017-07-30T09:57:13.187Z,1003.42
2017-07-30T09:58:23.160Z,1003.41
2017-07-30T09:59:33.409Z,1003.43
2017-07-30T10:00:43.345Z,1003.41
2017-07-30T10:01:53.580Z,1003.46
2017-07-30T10:03:03.513Z,1003.45
2017-07-30T10:04:13.786Z,1003.44
2017-07-30T10:05:23.711Z,1003.46
2017-07-30T10:06:33.623Z,1003.47
2017-07-30T10:07:43.534Z,1003.45
2017-07-30T10:08:53.750Z,1003.4
2017-07-30T10:10:03.669Z,1003.47
2017-07-30T10:11:13.587Z,1003.5
2017-07-30T10:12:23.523Z,1003.46
2017-07-30T10:13:33.438Z,1003.42
2017-07-30T10:14:43.655Z,1003.41
2017-07-30T10:15:53.866Z,1003.46
2017-07-30T10:17:03.794Z,1003.46
2017-07-30T10:18:14.088Z,1003.5
2017-07-30T10:19:24.307Z,1003.41
2017-07-30T10:20:33.931Z,1003.41
2017-07-30T10:21:43.853Z,1003.44
2017-07-30T10:22:53.776Z,1003.53
2017-07-30T10:24:03.392Z,1003.47
2017-07-30T10:25:13.308Z,1003.51
2017-07-30T10:26:23.538Z,1003.47
2017-07-30T10:27:33.938Z,1003.45
2017-07-30T10:28:43.845Z,1003.6
2017-07-30T10:29:53.753Z,1003.51
2017-07-30T10:31:03.073Z,1003.52
2017-07-30T10:32:13.296Z,1003.5
2017-07-30T10:33:23.511Z,1003.56
2017-07-30T10:34:33.419Z,1003.54
2017-07-30T10:35:43.337Z,1003.57
2017-07-30T10:36:52.958Z,1003.55
2017-07-30T10:38:02.877Z,1003.6
2017-07-30T10:39:12.374Z,1003.67
2017-07-30T10:40:22.289Z,1003.57
2017-07-30T10:41:32.513Z,1003.58
2017-07-30T10:42:42.423Z,1003.57
2017-07-30T10:43:52.041Z,1003.55
2017-07-30T10:45:01.796Z,1003.62
2017-07-30T10:46:11.708Z,1003.75
2017-07-30T10:47:21.329Z,1003.63
2017-07-30T10:48:31.259Z,1003.62
2017-07-30T10:49:41.170Z,1003.55
2017-07-30T10:50:51.229Z,1003.62
2017-07-30T10:52:01.468Z,1003.66
2017-07-30T10:53:11.697Z,1003.75
2017-07-30T10:54:21.929Z,1003.71
2017-07-30T10:55:31.842Z,1003.74
2017-07-30T10:56:41.911Z,1003.81
2017-07-30T10:57:51.534Z,1003.78
2017-07-30T10:59:00.837Z,1003.73
2017-07-30T11:00:11.068Z,1003.81
2017-07-30T11:01:20.985Z,1003.92
2017-07-30T11:02:30.903Z,1003.87
2017-07-30T11:03:40.521Z,1003.84
2017-07-30T11:04:50.753Z,1003.86
2017-07-30T11:06:00.362Z,1003.83
2017-07-30T11:07:10.576Z,1003.84
2017-07-30T11:08:20.897Z,1003.85
2017-07-30T11:09:31.143Z,1003.82
2017-07-30T11:10:40.749Z,1003.87
2017-07-30T11:11:50.346Z,1003.84
2017-07-30T11:12:59.647Z,1003.72
2017-07-30T11:14:10.015Z,1003.84
2017-07-30T11:15:19.642Z,1003.79
2017-07-30T11:16:29.578Z,1003.83
2017-07-30T11:17:39.488Z,1003.84
2017-07-30T11:18:49.407Z,1003.83
2017-07-30T11:19:59.417Z,1003.85
2017-07-30T11:21:09.331Z,1003.82
2017-07-30T11:22:18.936Z,1003.78
2017-07-30T11:23:27.932Z,1003.88
2017-07-30T11:24:37.853Z,1003.84
2017-07-30T11:25:47.519Z,1003.87
2017-07-30T11:26:57.737Z,1003.87
2017-07-30T11:28:07.651Z,1003.85
2017-07-30T11:29:17.577Z,1003.96
2017-07-30T11:30:27.189Z,1003.93
2017-07-30T11:31:37.206Z,1003.93
2017-07-30T11:32:46.806Z,1003.95
2017-07-30T11:33:57.023Z,1003.96
2017-07-30T11:35:06.941Z,1003.98
2017-07-30T11:36:17.184Z,1004.04
2017-07-30T11:37:27.097Z,1004.02
2017-07-30T11:38:37.320Z,1004.03
2017-07-30T11:39:47.234Z,1004.02
2017-07-30T11:40:57.149Z,1004
2017-07-30T11:42:07.070Z,1004.04
2017-07-30T11:43:17.136Z,1004.14
2017-07-30T11:44:27.051Z,1004.16
2017-07-30T11:45:37.284Z,1004.11
2017-07-30T11:46:46.594Z,1004.04
2017-07-30T11:47:56.509Z,1004.13
2017-07-30T11:49:06.728Z,1004.14
2017-07-30T11:50:16.949Z,1004.14
2017-07-30T11:51:26.575Z,1004.17
2017-07-30T11:52:36.489Z,1004.21
2017-07-30T11:53:46.101Z,1004.18
2017-07-30T11:54:56.622Z,1004.17
2017-07-30T11:56:06.578Z,1004.23
2017-07-30T11:57:16.515Z,1004.24
2017-07-30T11:58:26.444Z,1004.24
2017-07-30T11:59:36.362Z,1004.31
2017-07-30T12:00:46.124Z,1004.3
2017-07-30T12:01:56.047Z,1004.29
2017-07-30T12:03:05.675Z,1004.35
2017-07-30T12:04:15.595Z,1004.34
2017-07-30T12:05:25.523Z,1004.32
2017-07-30T12:06:36.266Z,1004.38
2017-07-30T12:07:46.502Z,1004.32
2017-07-30T12:08:56.419Z,1004.38
2017-07-30T12:10:06.647Z,1004.34
2017-07-30T12:11:16.547Z,1004.31
2017-07-30T12:12:26.604Z,1004.34
2017-07-30T12:13:36.507Z,1004.36
2017-07-30T12:14:46.741Z,1004.43
2017-07-30T12:15:56.669Z,1004.38
2017-07-30T12:17:06.589Z,1004.33
2017-07-30T12:18:16.968Z,1004.38
2017-07-30T12:19:26.573Z,1004.36
2017-07-30T12:20:36.812Z,1004.4
2017-07-30T12:21:47.071Z,1004.35
2017-07-30T12:22:57.047Z,1004.46
2017-07-30T12:24:07.321Z,1004.38
2017-07-30T12:25:16.948Z,1004.42
2017-07-30T12:26:26.254Z,1004.45
2017-07-30T12:27:36.491Z,1004.46
2017-07-30T12:28:46.764Z,1004.45
2017-07-30T12:29:56.981Z,1004.38
2017-07-30T12:31:06.604Z,1004.51
2017-07-30T12:32:16.530Z,1004.44
2017-07-30T12:33:26.447Z,1004.43
2017-07-30T12:34:36.365Z,1004.46
2017-07-30T12:35:46.134Z,1004.44
2017-07-30T12:36:56.063Z,1004.43
2017-07-30T12:38:05.983Z,1004.45
2017-07-30T12:39:15.596Z,1004.54
2017-07-30T12:40:24.907Z,1004.45
2017-07-30T12:41:35.442Z,1004.45
2017-07-30T12:42:45.369Z,1004.45
2017-07-30T12:43:54.978Z,1004.5
2017-07-30T12:45:04.900Z,1004.48
2017-07-30T12:46:15.117Z,1004.57
2017-07-30T12:47:25.416Z,1004.53
2017-07-30T12:48:35.027Z,1004.55
2017-07-30T12:49:44.326Z,1004.54
2017-07-30T12:50:54.565Z,1004.55
2017-07-30T12:52:04.186Z,1004.52
2017-07-30T12:53:14.424Z,1004.54
2017-07-30T12:54:23.754Z,1004.46
2017-07-30T12:55:33.372Z,1004.54
2017-07-30T12:56:42.985Z,1004.6
2017-07-30T12:57:52.911Z,1004.66
2017-07-30T12:59:02.864Z,1004.63
2017-07-30T13:00:12.816Z,1004.64
2017-07-30T13:01:23.080Z,1004.63
2017-07-30T13:02:32.709Z,1004.63
2017-07-30T13:03:42.662Z,1004.62
2017-07-30T13:04:52.735Z,1004.57
2017-07-30T13:06:02.045Z,1004.6
2017-07-30T13:07:11.665Z,1004.63
2017-07-30T13:08:21.892Z,1004.57
2017-07-30T13:09:31.810Z,1004.55
2017-07-30T13:10:41.568Z,1004.53
2017-07-30T13:11:51.482Z,1004.57
2017-07-30T13:13:01.112Z,1004.57
2017-07-30T13:14:11.035Z,1004.67
2017-07-30T13:15:20.952Z,1004.61
2017-07-30T13:16:31.278Z,1004.69
2017-07-30T13:17:41.264Z,1004.71
2017-07-30T13:18:50.871Z,1004.7
2017-07-30T13:20:01.097Z,1004.64
2017-07-30T13:21:11.328Z,1004.77
2017-07-30T13:22:20.786Z,1004.7
2017-07-30T13:23:30.611Z,1004.64
2017-07-30T13:24:41.288Z,1004.74
2017-07-30T13:25:51.212Z,1004.7
2017-07-30T13:27:00.823Z,1004.7
2017-07-30T13:28:10.214Z,1004.71
2017-07-30T13:29:19.237Z,1004.74
2017-07-30T13:30:28.855Z,1004.64
2017-07-30T13:31:38.775Z,1004.72
2017-07-30T13:32:49.002Z,1004.78
2017-07-30T13:33:58.917Z,1004.78
2017-07-30T13:35:08.832Z,1004.72
2017-07-30T13:36:18.757Z,1004.71
2017-07-30T13:37:28.399Z,1004.64
2017-07-30T13:38:38.330Z,1004.69
2017-07-30T13:39:48.710Z,1004.81
2017-07-30T13:40:58.662Z,1004.85
2017-07-30T13:42:08.942Z,1004.79
2017-07-30T13:43:18.881Z,1004.71
2017-07-30T13:44:28.792Z,1004.83
2017-07-30T13:45:38.823Z,1004.83
2017-07-30T13:46:48.444Z,1004.91
2017-07-30T13:47:58.689Z,1005
2017-07-30T13:49:08.928Z,1004.87
2017-07-30T13:50:18.234Z,1004.99
2017-07-30T13:51:27.646Z,1004.88
2017-07-30T13:52:37.268Z,1004.79
2017-07-30T13:53:47.523Z,1004.81
2017-07-30T13:54:57.430Z,1004.83
2017-07-30T13:56:07.413Z,1004.91
2017-07-30T13:57:18.008Z,1004.89
2017-07-30T13:58:28.240Z,1004.81
2017-07-30T13:59:38.500Z,1004.74
2017-07-30T14:00:48.742Z,1004.8
2017-07-30T14:01:58.382Z,1004.8
2017-07-30T14:03:08.290Z,1004.83
2017-07-30T14:04:18.201Z,1004.81
2017-07-30T14:05:28.126Z,1004.77
2017-07-30T14:06:38.051Z,1004.77
2017-07-30T14:07:47.657Z,1004.81
2017-07-30T14:08:57.932Z,1004.81